Time;durP1;ratioP1;P1;durP2;ratioP2;P2;SDS_P1;SDS_P2;PMS_P1;PMS_P2;Temp;Humidity;BMP_temperature;BMP_pressure;BME280_temperature;BME280_humidity;BME280_pressure;Samples;Min_cycle;Max_cycle;Signal;HPM_P1;HPM_P2
2021/06/18 00:01:23;;;;;;;6.65;4.55;;;;;;;17.91;71.76;94931.69;2975336;39;20180;-70
2021/06/18 00:03:25;;;;;;;6.50;4.70;;;;;;;17.89;71.46;94928.41;2973851;39;20052;-71
2021/06/18 00:05:26;;;;;;;6.05;4.20;;;;;;;17.88;71.46;94924.13;2974681;39;20047;-80
2021/06/18 00:07:28;;;;;;;9.88;5.72;;;;;;;17.88;71.05;94919.66;2976252;40;20048;-81
2021/06/18 00:09:30;;;;;;;4.65;3.75;;;;;;;17.87;70.68;94910.03;2977022;39;20117;-81
2021/06/18 00:11:31;;;;;;;5.30;3.70;;;;;;;17.85;70.55;94903.31;2976916;40;20095;-79
2021/06/18 00:13:33;;;;;;;5.28;3.60;;;;;;;17.84;69.87;94899.03;2967855;40;20048;-82
2021/06/18 00:15:35;;;;;;;6.35;3.78;;;;;;;17.83;70.07;94898.19;2975820;39;20386;-80
2021/06/18 00:17:38;;;;;;;5.65;3.55;;;;;;;17.80;69.68;94901.22;2971233;39;20082;-80
2021/06/18 00:19:40;;;;;;;5.03;3.35;;;;;;;17.79;69.54;94897.78;2972067;40;20072;-81
2021/06/18 00:21:42;;;;;;;7.57;4.22;;;;;;;17.78;69.60;94903.25;2975308;39;20064;-80
2021/06/18 00:23:43;;;;;;;6.85;3.60;;;;;;;17.81;69.63;94905.53;2972136;40;20153;-80
2021/06/18 00:25:45;;;;;;;4.95;3.45;;;;;;;17.79;69.42;94900.41;2979083;39;20056;-80
2021/06/18 00:27:47;;;;;;;4.35;3.40;;;;;;;17.74;70.03;94902.03;2972023;39;20064;-81
2021/06/18 00:29:49;;;;;;;4.43;3.00;;;;;;;17.62;70.13;94909.72;2973966;39;20054;-79
2021/06/18 00:31:51;;;;;;;6.05;3.65;;;;;;;17.55;70.42;94900.91;2973233;39;20056;-79
2021/06/18 00:33:52;;;;;;;4.07;3.40;;;;;;;17.37;71.03;94912.06;2977234;39;20505;-81
2021/06/18 00:35:54;;;;;;;5.43;3.78;;;;;;;17.23;71.71;94905.88;2977093;39;20179;-82
2021/06/18 00:37:56;;;;;;;4.63;3.80;;;;;;;16.96;73.16;94912.81;2976578;39;20176;-80
2021/06/18 00:39:57;;;;;;;5.47;3.50;;;;;;;16.98;73.20;94916.09;2970056;39;20063;-80
2021/06/18 00:42:00;;;;;;;6.80;3.53;;;;;;;17.07;72.93;94906.19;2972012;40;20080;-81
2021/06/18 00:44:01;;;;;;;8.05;4.22;;;;;;;17.15;72.57;94909.47;2971339;39;20100;-80
2021/06/18 00:46:04;;;;;;;6.18;4.00;;;;;;;17.29;72.14;94901.63;2974694;39;20082;-82
2021/06/18 00:48:06;;;;;;;5.47;3.72;;;;;;;17.37;71.53;94898.81;2970750;39;20063;-79
2021/06/18 00:50:08;;;;;;;5.43;3.47;;;;;;;17.45;71.26;94903.94;2967124;40;20057;-81
2021/06/18 00:52:11;;;;;;;5.95;3.80;;;;;;;17.50;70.89;94904.16;2974547;39;20113;-81
2021/06/18 00:54:13;;;;;;;5.82;3.50;;;;;;;17.58;70.93;94904.00;2975753;39;20124;-82
2021/06/18 00:56:15;;;;;;;6.75;3.22;;;;;;;17.59;69.91;94900.34;2971129;39;20061;-80
2021/06/18 00:58:17;;;;;;;5.97;3.15;;;;;;;17.60;69.63;94896.69;2972233;40;20395;-80
2021/06/18 01:00:20;;;;;;;7.40;3.42;;;;;;;17.62;69.24;94893.84;2975125;39;20068;-80
2021/06/18 01:02:22;;;;;;;4.10;3.25;;;;;;;17.65;69.29;94895.28;2977235;39;20101;-81
2021/06/18 01:04:25;;;;;;;4.40;3.30;;;;;;;17.66;69.06;94889.78;2972116;39;20060;-81
2021/06/18 01:06:31;;;;;;;5.32;3.28;;;;;;;17.67;68.94;94893.25;2975390;39;20472;-79
2021/06/18 01:08:44;;;;;;;4.47;3.22;;;;;;;17.64;68.89;94897.09;2973054;39;20440;-70
2021/06/18 01:11:06;;;;;;;6.68;3.50;;;;;;;17.67;69.06;94890.59;2974925;40;20059;-71
2021/06/18 01:13:41;;;;;;;5.38;3.22;;;;;;;17.63;69.43;94894.66;2972073;39;20064;-71
2021/06/18 01:16:07;;;;;;;6.32;3.40;;;;;;;17.58;69.80;94882.81;2972003;39;20153;-71
2021/06/18 01:18:12;;;;;;;4.70;3.20;;;;;;;17.58;69.81;94884.66;2975724;39;20060;-71
2021/06/18 01:20:43;;;;;;;5.70;3.17;;;;;;;17.62;69.62;94885.88;2979704;40;20072;-71
2021/06/18 01:22:46;;;;;;;7.38;3.13;;;;;;;17.66;69.65;94881.84;2970339;39;20075;-70
2021/06/18 01:25:23;;;;;;;5.70;3.20;;;;;;;17.70;69.48;94882.22;2966852;40;20048;-69
2021/06/18 01:27:36;;;;;;;6.88;3.88;;;;;;;17.73;69.59;94884.50;2970262;39;20230;-70
2021/06/18 01:29:59;;;;;;;5.60;3.60;;;;;;;17.73;69.42;94885.31;2974811;39;20059;-71
2021/06/18 01:32:03;;;;;;;4.13;3.55;;;;;;;17.76;69.38;94887.56;2961642;40;20493;-72
2021/06/18 01:34:15;;;;;;;5.05;3.40;;;;;;;17.79;68.90;94889.00;2967868;39;20211;-71
2021/06/18 01:36:18;;;;;;;4.80;3.20;;;;;;;17.76;68.88;94886.75;2970450;39;20059;-69
2021/06/18 01:38:22;;;;;;;5.25;3.45;;;;;;;17.73;68.93;94887.16;2966721;40;20602;-70
2021/06/18 01:40:25;;;;;;;6.53;3.60;;;;;;;17.70;69.35;94888.38;2972225;39;20140;-71
2021/06/18 01:42:27;;;;;;;;;;;;;;;17.71;69.42;94886.53;2961217;40;20161;-71
2021/06/18 01:44:30;;;;;;;4.63;3.70;;;;;;;17.66;69.67;94886.28;2972941;39;20217;-70
2021/06/18 01:46:36;;;;;;;6.60;3.38;;;;;;;17.66;69.57;94883.66;2973977;39;20060;-70
2021/06/18 01:48:39;;;;;;;7.55;3.90;;;;;;;17.67;69.69;94894.06;2968999;39;20101;-70
2021/06/18 01:50:42;;;;;;;5.43;3.30;;;;;;;17.69;69.47;94883.25;2977629;39;20132;-70
2021/06/18 01:52:49;;;;;;;5.35;3.55;;;;;;;17.69;69.21;94886.72;2969569;39;20316;-71
2021/06/18 01:54:50;;;;;;;4.88;3.67;;;;;;;17.70;69.18;94882.22;2971377;39;20228;-71
2021/06/18 01:56:53;;;;;;;4.82;3.47;;;;;;;17.72;68.69;94890.81;2966302;40;20052;-70
2021/06/18 01:58:57;;;;;;;6.05;3.88;;;;;;;17.68;68.50;94885.09;2971531;39;20401;-71
2021/06/18 02:00:59;;;;;;;4.18;3.35;;;;;;;17.66;68.73;94888.94;2973958;39;20169;-71
2021/06/18 02:03:03;;;;;;;5.78;3.53;;;;;;;17.63;68.85;94892.00;2977214;39;20047;-69
2021/06/18 02:05:06;;;;;;;4.88;3.60;;;;;;;17.64;68.69;94888.31;2970741;39;20048;-70
2021/06/18 02:07:08;;;;;;;4.88;4.13;;;;;;;17.62;69.13;94888.53;2969522;40;20048;-70
2021/06/18 02:09:13;;;;;;;5.35;3.50;;;;;;;17.56;69.34;94890.13;2969330;39;20493;-71
2021/06/18 02:11:14;;;;;;;3.97;3.42;;;;;;;17.53;69.59;94895.84;2972779;39;20077;-70
2021/06/18 02:13:18;;;;;;;4.90;3.83;;;;;;;17.52;69.83;94894.19;2966189;40;20101;-73
2021/06/18 02:15:20;;;;;;;7.00;3.78;;;;;;;17.44;70.15;94901.50;2973552;40;20342;-70
2021/06/18 02:17:23;;;;;;;7.68;3.95;;;;;;;17.41;70.21;94902.69;2976040;39;20353;-71
2021/06/18 02:19:25;;;;;;;8.43;4.32;;;;;;;17.42;70.30;94896.38;2976522;39;20224;-80
2021/06/18 02:21:27;;;;;;;7.82;4.10;;;;;;;17.26;70.70;94899.38;2976948;39;20051;-81
2021/06/18 02:23:32;;;;;;;4.70;3.80;;;;;;;16.95;71.51;94897.94;2975609;39;20398;-80
2021/06/18 02:25:35;;;;;;;7.10;4.35;;;;;;;16.88;71.75;94902.38;2972216;39;20065;-82
2021/06/18 02:27:38;;;;;;;4.63;3.42;;;;;;;16.81;71.71;94904.16;2975507;40;20168;-80
2021/06/18 02:29:43;;;;;;;6.90;3.92;;;;;;;16.76;71.92;94905.53;2973998;39;20048;-81
2021/06/18 02:31:45;;;;;;;7.47;4.20;;;;;;;16.43;72.83;94901.78;2972826;39;20076;-81
2021/06/18 02:33:49;;;;;;;8.70;4.13;;;;;;;16.21;74.24;94915.00;2967228;40;20065;-80
2021/06/18 02:35:50;;;;;;;;;;;;;;;16.28;74.02;94905.34;2976171;40;20084;-81
2021/06/18 02:37:52;;;;;;;7.07;4.30;;;;;;;16.38;73.96;94903.16;2975300;39;20017;-84
2021/06/18 02:39:54;;;;;;;9.23;4.65;;;;;;;16.49;73.36;94904.47;2971476;39;20138;-80
2021/06/18 02:41:56;;;;;;;7.50;4.22;;;;;;;16.51;72.96;94901.66;2974032;39;20060;-81
2021/06/18 02:43:58;;;;;;;6.90;3.70;;;;;;;16.56;72.64;94896.59;2971128;39;20153;-80
2021/06/18 02:45:59;;;;;;;5.53;3.65;;;;;;;16.66;72.55;94897.09;2973920;39;20076;-81
2021/06/18 02:48:19;;;;;;;7.18;4.20;;;;;;;16.75;72.10;94895.13;2977001;39;20063;-80
2021/06/18 02:50:56;;;;;;;5.43;3.78;;;;;;;16.67;72.03;94898.75;2971906;39;20067;-82
2021/06/18 02:53:20;;;;;;;9.68;4.32;;;;;;;16.57;72.62;94904.34;2969322;39;20080;-81
2021/06/18 02:55:29;;;;;;;7.10;3.58;;;;;;;16.55;73.41;94902.91;2970360;39;20044;-80
2021/06/18 02:57:35;;;;;;;7.13;3.63;;;;;;;16.62;72.59;94903.78;2961496;40;20446;-80
2021/06/18 02:59:43;;;;;;;7.50;4.03;;;;;;;16.56;72.39;94907.19;2972007;39;20044;-80
2021/06/18 03:01:46;;;;;;;6.20;4.28;;;;;;;16.56;72.97;94917.75;2970551;40;20114;-80
2021/06/18 03:03:48;;;;;;;6.63;4.15;;;;;;;16.57;73.16;94916.78;2972006;39;20107;-80
2021/06/18 03:05:52;;;;;;;9.02;4.57;;;;;;;16.60;73.34;94919.03;2975079;40;20114;-81
2021/06/18 03:08:02;;;;;;;11.50;4.15;;;;;;;16.62;73.66;94916.19;2975392;39;20078;-80
2021/06/18 03:10:07;;;;;;;7.20;4.80;;;;;;;16.68;73.62;94907.50;2973271;39;20092;-80
2021/06/18 03:12:10;;;;;;;7.20;5.40;;;;;;;16.67;74.12;94922.56;2972265;39;20192;-81
2021/06/18 03:14:16;;;;;;;8.02;5.75;;;;;;;16.65;74.24;94918.44;2970388;39;20059;-80
2021/06/18 03:16:18;;;;;;;7.10;5.53;;;;;;;16.71;74.30;94918.53;2975072;40;20345;-79
2021/06/18 03:18:22;;;;;;;6.90;4.75;;;;;;;16.81;74.10;94927.97;2973255;39;20149;-79
2021/06/18 03:20:24;;;;;;;11.95;6.70;;;;;;;16.89;73.85;94919.91;2965833;40;20113;-81
2021/06/18 03:22:27;;;;;;;6.60;5.38;;;;;;;16.96;73.47;94926.88;2961879;40;20152;-71
2021/06/18 03:24:31;;;;;;;13.30;6.23;;;;;;;17.04;73.01;94927.75;2973740;39;20137;-72
2021/06/18 03:26:33;;;;;;;8.52;5.38;;;;;;;17.02;72.87;94927.94;2980651;39;20407;-71
2021/06/18 03:28:35;;;;;;;7.72;5.55;;;;;;;17.00;73.00;94927.31;2968633;40;20508;-72
2021/06/18 03:30:37;;;;;;;8.75;5.35;;;;;;;17.03;73.24;94923.44;2968245;39;20125;-70
2021/06/18 03:32:40;;;;;;;10.57;6.15;;;;;;;17.11;73.03;94920.66;2973815;39;20127;-71
2021/06/18 03:34:42;;;;;;;8.32;5.57;;;;;;;17.17;72.68;94917.25;2969120;39;20136;-72
2021/06/18 03:36:45;;;;;;;8.52;6.57;;;;;;;17.22;72.45;94914.00;2970682;39;20309;-70
2021/06/18 03:38:47;;;;;;;7.63;6.00;;;;;;;17.27;72.26;94909.78;2962979;40;20107;-71
2021/06/18 03:40:49;;;;;;;7.13;5.78;;;;;;;17.29;71.84;94914.84;2972321;40;20160;-71
2021/06/18 03:42:51;;;;;;;8.23;5.20;;;;;;;17.33;71.88;94916.09;2968581;39;20068;-71
2021/06/18 03:44:53;;;;;;;5.97;5.10;;;;;;;17.37;71.70;94928.75;2969199;39;20047;-71
2021/06/18 03:46:56;;;;;;;8.27;5.78;;;;;;;17.42;71.49;94924.69;2964929;40;20300;-70
2021/06/18 03:48:59;;;;;;;9.80;6.50;;;;;;;17.43;71.46;94921.88;2977194;39;20054;-71
2021/06/18 03:51:01;;;;;;;7.15;6.32;;;;;;;17.49;71.19;94921.09;2969294;40;20285;-73
2021/06/18 03:53:03;;;;;;;9.65;7.57;;;;;;;17.52;71.25;94925.97;2968238;39;20095;-72
2021/06/18 03:55:06;;;;;;;11.05;7.30;;;;;;;17.57;71.03;94930.69;2969245;40;20060;-71
2021/06/18 03:57:08;;;;;;;12.75;8.45;;;;;;;17.57;70.92;94935.97;2968628;40;20479;-70
2021/06/18 03:59:13;;;;;;;12.45;8.18;;;;;;;17.64;70.86;94941.31;2965568;40;20053;-70
2021/06/18 04:01:15;;;;;;;9.15;8.23;;;;;;;17.69;70.45;94930.94;2964853;39;20053;-71
2021/06/18 04:03:19;;;;;;;10.93;8.10;;;;;;;17.74;70.33;94933.81;2972813;39;20051;-70
2021/06/18 04:05:22;;;;;;;10.40;7.10;;;;;;;17.80;70.00;94935.69;2967370;40;20404;-71
2021/06/18 04:07:24;;;;;;;8.88;7.88;;;;;;;17.80;69.87;94939.13;2974097;39;20048;-72
2021/06/18 04:09:26;;;;;;;11.13;7.32;;;;;;;17.86;69.79;94931.47;2969631;39;20063;-70
2021/06/18 04:11:28;;;;;;;11.73;8.57;;;;;;;17.89;69.89;94933.69;2974250;40;20157;-71
2021/06/18 04:13:30;;;;;;;10.55;9.27;;;;;;;17.91;69.25;94929.03;2970364;39;20052;-71
2021/06/18 04:15:32;;;;;;;16.88;9.68;;;;;;;17.94;69.26;94932.09;2966800;39;20100;-70
2021/06/18 04:17:33;;;;;;;11.70;8.50;;;;;;;17.98;69.18;94924.56;2974005;40;20052;-73
2021/06/18 04:19:36;;;;;;;10.35;6.97;;;;;;;18.05;68.68;94932.53;2970380;39;20087;-71
2021/06/18 04:21:43;;;;;;;12.77;7.68;;;;;;;18.07;68.52;94928.69;2972254;39;20083;-70
2021/06/18 04:23:45;;;;;;;10.98;7.82;;;;;;;18.08;68.34;94929.50;2973592;39;20136;-70
2021/06/18 04:25:47;;;;;;;13.05;8.20;;;;;;;18.13;68.36;94927.88;2976098;39;20113;-71
2021/06/18 04:27:50;;;;;;;12.02;8.25;;;;;;;18.17;68.38;94925.63;2976178;39;20055;-71
2021/06/18 04:29:51;;;;;;;13.27;8.70;;;;;;;18.24;68.34;94930.94;2976250;39;20054;-71
2021/06/18 04:31:53;;;;;;;14.43;8.85;;;;;;;18.30;67.94;94930.94;2972655;39;20052;-71
2021/06/18 04:33:55;;;;;;;12.07;8.90;;;;;;;18.35;67.74;94925.88;2969431;39;20060;-70
2021/06/18 04:35:57;;;;;;;13.55;9.07;;;;;;;18.41;67.25;94935.69;2975385;40;20378;-72
2021/06/18 04:38:00;;;;;;;14.82;10.55;;;;;;;18.35;67.25;94931.19;2970868;39;20044;-72
2021/06/18 04:40:03;;;;;;;15.40;10.50;;;;;;;18.31;67.75;94929.16;2969697;39;20123;-71
2021/06/18 04:42:07;;;;;;;12.90;10.63;;;;;;;18.31;67.83;94929.16;2972492;40;20048;-72
2021/06/18 04:44:09;;;;;;;14.27;10.20;;;;;;;18.32;67.69;94936.88;2970331;39;20110;-70
2021/06/18 04:46:11;;;;;;;15.05;10.80;;;;;;;18.33;67.74;94935.88;2971078;39;20048;-80
2021/06/18 04:48:13;;;;;;;14.82;10.32;;;;;;;18.30;68.02;94938.91;2981262;39;20420;-82
2021/06/18 04:50:15;;;;;;;16.25;10.05;;;;;;;18.32;67.73;94934.22;2972074;39;20161;-81
2021/06/18 04:52:17;;;;;;;14.93;11.43;;;;;;;18.35;67.98;94944.44;2974980;39;20141;-82
2021/06/18 04:54:21;;;;;;;15.57;9.98;;;;;;;18.39;68.10;94937.72;2981104;39;20043;-84
2021/06/18 04:56:23;;;;;;;16.95;9.80;;;;;;;18.34;68.66;94948.09;2975027;39;20076;-80
2021/06/18 04:58:25;;;;;;;15.23;9.88;;;;;;;18.38;68.42;94948.53;2974890;39;20351;-82
2021/06/18 05:00:28;;;;;;;15.00;9.38;;;;;;;18.45;68.40;94948.53;2972911;40;20413;-83
2021/06/18 05:02:30;;;;;;;15.23;9.25;;;;;;;18.42;68.43;94941.81;2974280;39;20060;-84
2021/06/18 05:04:32;;;;;;;12.10;8.82;;;;;;;18.38;68.77;94941.38;2971988;40;20077;-82
2021/06/18 05:06:34;;;;;;;13.23;9.27;;;;;;;18.36;68.99;94943.41;2976046;39;20083;-83
2021/06/18 05:08:35;;;;;;;13.20;9.45;;;;;;;18.33;69.16;94945.66;2976535;39;20113;-84
2021/06/18 05:10:37;;;;;;;14.85;9.07;;;;;;;18.19;69.44;94950.91;2975581;40;20410;-82
2021/06/18 05:12:39;;;;;;;9.98;7.85;;;;;;;18.11;69.98;94940.53;2977345;39;20032;-83
2021/06/18 05:14:41;;;;;;;11.48;7.97;;;;;;;18.16;69.85;94948.69;2974401;40;20327;-82
2021/06/18 05:16:42;;;;;;;10.68;7.85;;;;;;;18.30;69.54;94946.88;2970869;40;20064;-83
2021/06/18 05:18:44;;;;;;;13.88;9.07;;;;;;;18.42;69.58;94953.22;2977441;39;20459;-82
2021/06/18 05:20:46;;;;;;;13.90;8.40;;;;;;;18.54;69.08;94953.47;2973473;39;20305;-84
2021/06/18 05:22:48;;;;;;;12.32;9.05;;;;;;;18.66;68.57;94953.66;2977462;39;20151;-84
2021/06/18 05:24:50;;;;;;;12.35;8.65;;;;;;;18.80;68.12;94958.00;2979387;39;20409;-85
2021/06/18 05:26:52;;;;;;;13.45;8.90;;;;;;;18.92;67.62;94958.19;2975175;39;20051;-81
2021/06/18 05:28:54;;;;;;;11.65;8.38;;;;;;;19.01;67.28;94956.16;2976135;39;20116;-81
2021/06/18 05:30:56;;;;;;;11.70;8.48;;;;;;;19.02;67.25;94952.50;2976905;39;20147;-81
2021/06/18 05:33:02;;;;;;;14.68;8.75;;;;;;;19.14;67.00;94952.66;2972840;39;20144;-83
2021/06/18 05:35:05;;;;;;;12.00;7.72;;;;;;;19.21;66.64;94948.19;2981138;39;20137;-82
2021/06/18 05:37:06;;;;;;;18.45;8.40;;;;;;;19.21;67.05;94956.97;2972311;39;20301;-84
2021/06/18 05:39:08;;;;;;;12.32;7.93;;;;;;;19.29;66.65;94957.75;2972568;39;20244;-83
2021/06/18 05:41:10;;;;;;;13.35;7.32;;;;;;;19.34;65.97;94956.13;2976332;40;20063;-84
2021/06/18 05:43:12;;;;;;;10.70;8.95;;;;;;;19.15;65.98;94952.47;2972125;39;20137;-83
2021/06/18 05:45:14;;;;;;;11.98;7.47;;;;;;;18.88;65.98;94951.66;2978642;39;20318;-80
2021/06/18 05:47:16;;;;;;;13.52;7.65;;;;;;;18.85;66.61;94954.72;2973100;39;20052;-82
2021/06/18 05:49:18;;;;;;;16.50;8.32;;;;;;;18.95;66.65;94956.97;2970516;39;20078;-82
2021/06/18 05:51:20;;;;;;;12.55;7.28;;;;;;;19.14;66.43;94958.78;2974960;39;20480;-82
2021/06/18 05:53:22;;;;;;;16.13;7.38;;;;;;;18.98;66.08;94956.56;2975912;39;20083;-81
2021/06/18 05:55:24;;;;;;;12.15;7.45;;;;;;;18.88;66.11;94954.31;2972974;39;20365;-82
2021/06/18 05:57:26;;;;;;;12.65;7.47;;;;;;;18.92;66.18;94952.06;2974443;39;20499;-83
2021/06/18 05:59:27;;;;;;;10.75;7.15;;;;;;;18.94;66.72;94955.34;2976096;39;20075;-83
2021/06/18 06:01:29;;;;;;;12.50;7.38;;;;;;;19.15;66.51;94954.31;2981002;39;20092;-83
2021/06/18 06:03:33;;;;;;;;;;;;;;;19.36;66.00;94954.09;2976523;39;20117;-81
2021/06/18 06:05:35;;;;;;;10.57;7.88;;;;;;;19.54;65.88;94953.41;2969588;39;20209;-73
2021/06/18 06:07:37;;;;;;;14.68;7.90;;;;;;;19.62;65.25;94947.88;2973012;40;20079;-72
2021/06/18 06:09:39;;;;;;;13.18;8.25;;;;;;;19.70;64.67;94951.38;2971070;39;20055;-71
2021/06/18 06:11:41;;;;;;;12.15;8.05;;;;;;;19.79;64.99;94942.97;2971676;40;20398;-72
2021/06/18 06:13:42;;;;;;;13.02;7.78;;;;;;;19.87;65.12;94943.75;2970112;39;20044;-72
2021/06/18 06:15:46;;;;;;;16.52;7.88;;;;;;;19.99;64.27;94937.56;2970285;39;20216;-73
2021/06/18 06:17:48;;;;;;;14.98;8.48;;;;;;;20.15;63.78;94938.09;2970513;39;20055;-72
2021/06/18 06:19:49;;;;;;;11.32;7.47;;;;;;;20.28;63.17;94935.34;2974396;39;20054;-71
2021/06/18 06:21:51;;;;;;;11.70;9.07;;;;;;;20.41;62.36;94937.97;2970000;39;20356;-72
2021/06/18 06:23:54;;;;;;;16.50;8.25;;;;;;;20.49;61.72;94933.41;2971511;39;20056;-71
2021/06/18 06:25:56;;;;;;;12.80;8.00;;;;;;;20.54;62.24;94936.22;2971330;39;20068;-71
2021/06/18 06:27:58;;;;;;;13.88;7.57;;;;;;;20.56;61.72;94926.19;2971268;39;20076;-72
2021/06/18 06:29:59;;;;;;;12.25;7.95;;;;;;;20.65;61.65;94930.25;2969455;39;20102;-71
2021/06/18 06:32:01;;;;;;;14.95;8.55;;;;;;;20.28;62.19;94927.38;2965730;40;20156;-71
2021/06/18 06:34:03;;;;;;;11.77;8.13;;;;;;;20.30;62.28;94925.31;2968378;39;20054;-72
2021/06/18 06:36:05;;;;;;;12.68;7.57;;;;;;;20.42;62.40;94920.94;2968035;39;20060;-73
2021/06/18 06:38:07;;;;;;;11.20;7.88;;;;;;;20.59;61.65;94925.78;2970940;39;20086;-73
2021/06/18 06:40:12;;;;;;;14.38;8.07;;;;;;;20.69;60.64;94928.75;2970833;39;20108;-72
2021/06/18 06:42:14;;;;;;;14.65;8.60;;;;;;;20.86;60.23;94916.56;2970588;39;20091;-73
2021/06/18 06:44:16;;;;;;;18.55;9.13;;;;;;;20.97;60.27;94920.38;2969217;39;20129;-71
2021/06/18 06:46:20;;;;;;;12.52;8.40;;;;;;;21.01;60.26;94926.06;2968759;39;20416;-72
2021/06/18 06:48:22;;;;;;;14.93;8.77;;;;;;;21.14;60.18;94927.78;2970491;39;20047;-74
2021/06/18 06:50:24;;;;;;;13.40;8.80;;;;;;;21.09;60.08;94927.66;2968586;39;20396;-73
2021/06/18 06:52:25;;;;;;;11.60;7.72;;;;;;;20.93;61.16;94915.69;2969981;39;20128;-74
2021/06/18 06:54:27;;;;;;;11.68;8.07;;;;;;;20.93;61.41;94919.19;2969143;40;20064;-71
2021/06/18 06:56:29;;;;;;;10.13;7.85;;;;;;;20.98;60.86;94922.00;2969617;39;20145;-71
2021/06/18 06:58:31;;;;;;;13.65;7.45;;;;;;;20.49;60.91;94917.44;2970369;39;20483;-72
2021/06/18 07:00:33;;;;;;;8.63;5.90;;;;;;;20.65;60.83;94906.31;2971008;39;20354;-72
2021/06/18 07:02:35;;;;;;;9.27;6.82;;;;;;;20.82;60.63;94910.06;2969363;40;20044;-73
2021/06/18 07:04:37;;;;;;;12.15;6.45;;;;;;;21.05;60.06;94900.63;2967193;39;20064;-72
2021/06/18 07:06:39;;;;;;;9.48;6.40;;;;;;;21.17;59.16;94906.88;2969233;39;20052;-72
2021/06/18 07:08:41;;;;;;;12.27;5.90;;;;;;;21.34;58.85;94896.44;2965895;40;20092;-72
2021/06/18 07:10:42;;;;;;;9.85;6.32;;;;;;;21.21;58.89;94893.94;2973796;39;20144;-71
2021/06/18 07:12:44;;;;;;;9.40;5.70;;;;;;;21.46;58.42;94886.69;2970134;39;20056;-71
2021/06/18 07:14:48;;;;;;;12.05;5.20;;;;;;;21.33;57.95;94881.47;2970194;39;20306;-72
2021/06/18 07:16:49;;;;;;;8.60;5.53;;;;;;;21.06;58.43;94884.44;2972943;39;20058;-72
2021/06/18 07:18:52;;;;;;;7.10;5.15;;;;;;;21.28;57.63;94876.00;2973875;39;20111;-71
2021/06/18 07:20:54;;;;;;;11.68;5.85;;;;;;;21.55;57.62;94881.88;2970283;39;20048;-72
2021/06/18 07:22:56;;;;;;;11.45;5.50;;;;;;;21.07;57.89;94894.03;2969715;39;20058;-70
2021/06/18 07:24:58;;;;;;;10.98;4.82;;;;;;;20.97;58.80;94885.75;2970187;40;20134;-73
2021/06/18 07:27:00;;;;;;;6.32;5.47;;;;;;;21.17;58.07;94882.88;2969781;39;20063;-71
2021/06/18 07:29:02;;;;;;;7.88;3.90;;;;;;;21.02;58.59;94871.78;2965506;40;20056;-71
2021/06/18 07:31:04;;;;;;;6.07;3.63;;;;;;;21.27;58.13;94869.88;2973243;40;20406;-72
2021/06/18 07:33:06;;;;;;;7.22;4.20;;;;;;;21.24;58.18;94870.31;2969612;39;20212;-72
2021/06/18 07:35:08;;;;;;;8.13;4.50;;;;;;;20.97;58.11;94877.75;2968461;39;20068;-72
2021/06/18 07:37:10;;;;;;;6.45;4.15;;;;;;;20.93;57.62;94876.56;2969868;39;20414;-72
2021/06/18 07:39:21;;;;;;;7.28;4.55;;;;;;;21.11;58.82;94874.97;2968330;39;21354;-73
2021/06/18 07:41:23;;;;;;;7.25;3.80;;;;;;;21.41;57.92;94869.72;2972406;39;20153;-70
2021/06/18 07:43:25;;;;;;;5.28;3.88;;;;;;;21.55;57.12;94859.75;2969923;40;20071;-73
2021/06/18 07:45:27;;;;;;;5.70;4.00;;;;;;;21.80;57.40;94854.31;2968772;39;20413;-72
2021/06/18 07:47:28;;;;;;;6.55;3.88;;;;;;;21.62;58.21;94865.84;2969930;39;20092;-70
2021/06/18 07:49:30;;;;;;;6.25;4.22;;;;;;;21.61;59.00;94862.34;2970008;39;20063;-72
2021/06/18 07:51:32;;;;;;;6.40;4.05;;;;;;;21.61;58.90;94859.66;2973963;39;20056;-71
2021/06/18 07:53:35;;;;;;;9.02;5.32;;;;;;;21.67;58.62;94857.97;2968993;39;20121;-73
2021/06/18 07:55:36;;;;;;;7.40;3.88;;;;;;;21.75;57.36;94854.19;2969428;39;20305;-72
2021/06/18 07:57:38;;;;;;;6.13;3.60;;;;;;;21.56;57.84;94862.19;2970650;39;20052;-72
2021/06/18 07:59:40;;;;;;;5.20;3.47;;;;;;;21.66;56.83;94859.00;2971553;39;20079;-73
2021/06/18 08:01:41;;;;;;;5.75;3.83;;;;;;;21.70;56.82;94862.84;2970067;39;20059;-74
2021/06/18 08:03:43;;;;;;;5.50;3.60;;;;;;;21.77;56.26;94863.59;2969130;40;20074;-73
2021/06/18 08:05:45;;;;;;;4.07;2.60;;;;;;;21.41;53.46;94861.75;2973173;39;20052;-72
2021/06/18 08:07:48;;;;;;;9.48;3.03;;;;;;;21.80;54.29;94867.66;2971216;39;20439;-71
2021/06/18 08:09:50;;;;;;;7.07;3.45;;;;;;;22.19;53.30;94860.16;2973786;39;20059;-72
2021/06/18 08:11:52;;;;;;;6.90;3.90;;;;;;;22.24;54.37;94862.97;2974675;39;20056;-71
2021/06/18 08:13:54;;;;;;;9.25;4.45;;;;;;;22.34;55.38;94862.44;2970614;39;20051;-71
2021/06/18 08:15:56;;;;;;;5.60;3.95;;;;;;;22.31;54.73;94863.72;2970245;39;20048;-71
2021/06/18 08:17:58;;;;;;;7.72;4.25;;;;;;;22.28;54.67;94862.31;2970612;40;20056;-72
2021/06/18 08:20:01;;;;;;;5.90;3.45;;;;;;;22.38;53.66;94864.41;2970176;40;20056;-72
2021/06/18 08:22:05;;;;;;;3.55;2.72;;;;;;;22.10;51.70;94859.66;2973865;39;20297;-72
2021/06/18 08:24:07;;;;;;;5.28;2.72;;;;;;;22.26;52.48;94859.06;2972105;39;20063;-72
2021/06/18 08:26:08;;;;;;;3.85;2.90;;;;;;;22.33;53.69;94855.44;2968513;39;20040;-70
2021/06/18 08:28:10;;;;;;;5.57;2.70;;;;;;;22.51;52.52;94851.91;2971008;39;20152;-73
2021/06/18 08:30:12;;;;;;;7.10;4.05;;;;;;;22.64;52.64;94849.84;2971358;39;20060;-72
2021/06/18 08:32:23;;;;;;;5.43;3.55;;;;;;;22.67;52.08;94849.38;2971773;39;20079;-73
2021/06/18 08:34:25;;;;;;;3.70;2.58;;;;;;;22.51;52.09;94847.38;2972346;39;20055;-71
2021/06/18 08:36:27;;;;;;;7.05;3.30;;;;;;;22.74;51.68;94841.25;2971200;39;20140;-72
2021/06/18 08:38:34;;;;;;;5.00;3.17;;;;;;;22.52;50.48;94846.34;2970862;39;20067;-73
2021/06/18 08:40:36;;;;;;;7.07;2.67;;;;;;;22.80;50.68;94845.69;2973540;40;20056;-73
2021/06/18 08:42:38;;;;;;;5.88;3.45;;;;;;;23.07;49.96;94835.34;2969765;39;20088;-73
2021/06/18 08:44:41;;;;;;;3.70;2.60;;;;;;;22.75;49.07;94844.75;2968846;40;20048;-72
2021/06/18 08:46:43;;;;;;;3.08;2.13;;;;;;;22.83;49.86;94842.53;2969883;39;20120;-73
2021/06/18 08:48:47;;;;;;;4.10;2.53;;;;;;;22.86;49.40;94843.94;2974952;39;20052;-73
2021/06/18 08:50:49;;;;;;;8.43;3.42;;;;;;;23.07;48.64;94843.38;2971010;39;20092;-72
2021/06/18 08:52:54;;;;;;;7.63;3.17;;;;;;;23.13;47.75;94840.81;2969504;39;20088;-72
2021/06/18 08:54:55;;;;;;;4.60;3.50;;;;;;;23.03;48.51;94836.06;2968373;39;20063;-71
2021/06/18 08:56:57;;;;;;;3.72;2.50;;;;;;;23.02;48.01;94835.25;2968910;39;20103;-73
2021/06/18 08:58:59;;;;;;;3.47;1.98;;;;;;;22.93;44.85;94838.47;2969193;40;20447;-73
2021/06/18 09:01:01;;;;;;;3.60;2.00;;;;;;;22.94;45.73;94840.09;2967685;39;20090;-73
2021/06/18 09:03:42;;;;;;;2.95;2.00;;;;;;;22.76;47.94;94835.66;2967813;39;20441;-72
2021/06/18 09:05:43;;;;;;;5.63;2.50;;;;;;;22.89;48.43;94833.59;2968887;39;20068;-72
2021/06/18 09:08:02;;;;;;;2.72;2.00;;;;;;;22.82;48.78;94840.09;2969272;40;20333;-82
2021/06/18 09:10:40;;;;;;;3.47;2.40;;;;;;;22.88;47.37;94831.16;2971842;39;20060;-82
2021/06/18 09:13:05;;;;;;;3.67;1.88;;;;;;;23.05;46.46;94828.63;2976418;39;20047;-83
2021/06/18 09:15:07;;;;;;;3.38;1.77;;;;;;;23.46;45.74;94827.63;2975012;39;20052;-82
2021/06/18 09:17:10;;;;;;;3.40;2.15;;;;;;;23.79;46.00;94831.53;2970929;39;20040;-82
2021/06/18 09:19:24;;;;;;;3.03;1.95;;;;;;;24.01;45.09;94831.66;2972588;39;20084;-82
2021/06/18 09:21:26;;;;;;;4.60;3.50;;;;;;;23.97;46.38;94835.88;2972163;39;20058;-82
2021/06/18 09:23:52;;;;;;;4.85;2.20;;;;;;;24.18;46.40;94831.72;2975689;39;20152;-82
2021/06/18 09:26:33;;;;;;;3.15;2.40;;;;;;;23.80;46.51;94835.00;2972785;39;20082;-83
2021/06/18 09:29:03;;;;;;;3.47;2.42;;;;;;;23.65;47.62;94819.44;2974725;40;20432;-81
2021/06/18 09:31:06;;;;;;;4.75;2.97;;;;;;;23.52;48.06;94824.00;2974568;39;20079;-85
2021/06/18 09:33:18;;;;;;;5.47;2.85;;;;;;;23.38;48.80;94811.97;2973017;40;20118;-81
2021/06/18 09:35:20;;;;;;;2.83;2.28;;;;;;;22.99;50.28;94811.63;2976032;39;20695;-83
2021/06/18 09:37:31;;;;;;;5.65;3.03;;;;;;;23.15;50.33;94820.84;2964056;40;20057;-81
2021/06/18 09:39:33;;;;;;;3.80;2.38;;;;;;;23.18;50.10;94815.00;2975299;39;20059;-83
2021/06/18 09:41:44;;;;;;;3.58;2.22;;;;;;;23.37;49.15;94818.34;2975493;39;20476;-84
2021/06/18 09:43:45;;;;;;;4.32;2.30;;;;;;;23.42;48.93;94810.44;2971413;39;20316;-82